createdAt,value
2022-08-26T00:00:20.202Z,23.84
2022-08-26T00:02:48.660Z,23.70
2022-08-26T00:05:18.720Z,23.66
2022-08-26T00:07:47.640Z,23.80
2022-08-26T00:10:16.453Z,23.65
2022-08-26T00:12:45.941Z,23.47
2022-08-26T00:15:18.081Z,23.60
2022-08-26T00:17:47.036Z,23.79
2022-08-26T00:20:20.726Z,23.80
2022-08-26T00:22:49.272Z,23.22
2022-08-26T00:25:18.207Z,23.76
2022-08-26T00:27:47.969Z,23.26
2022-08-26T00:30:22.821Z,23.17
2022-08-26T00:32:53.064Z,23.11
2022-08-26T00:35:24.239Z,23.04
2022-08-26T00:37:55.822Z,22.83
2022-08-26T00:40:27.456Z,23.47
2022-08-26T00:42:56.161Z,23.75
2022-08-26T00:45:25.280Z,23.66
2022-08-26T00:47:57.604Z,23.72
2022-08-26T00:50:32.949Z,23.49
2022-08-26T00:53:03.543Z,23.30
2022-08-26T00:55:37.926Z,23.10
2022-08-26T00:58:08.739Z,22.91
2022-08-26T01:00:37.501Z,22.99
2022-08-26T01:03:06.154Z,22.84
2022-08-26T01:05:42.312Z,22.96
2022-08-26T01:08:11.258Z,23.18
2022-08-26T01:10:40.550Z,22.96
2022-08-26T01:13:11.472Z,23.34
2022-08-26T01:15:45.008Z,23.10
2022-08-26T01:18:14.751Z,22.94
2022-08-26T01:20:57.697Z,22.67
2022-08-26T01:23:30.218Z,23.10
2022-08-26T01:26:02.182Z,23.17
2022-08-26T01:28:33.509Z,23.40
2022-08-26T01:31:05.323Z,23.48
2022-08-26T01:33:42.376Z,23.38
2022-08-26T01:36:12.377Z,23.36
2022-08-26T01:38:43.318Z,23.33
2022-08-26T01:41:19.807Z,22.99
2022-08-26T01:43:57.884Z,23.26
2022-08-26T01:46:29.633Z,23.31
2022-08-26T01:49:01.641Z,23.43
2022-08-26T01:51:31.992Z,23.18
2022-08-26T01:54:02.109Z,23.05
2022-08-26T01:56:33.097Z,23.12
2022-08-26T01:59:04.212Z,22.63
2022-08-26T02:01:33.360Z,22.39
2022-08-26T02:04:09.673Z,22.28
2022-08-26T02:06:39.959Z,22.14
2022-08-26T02:09:10.469Z,21.93
2022-08-26T02:11:39.953Z,21.92
2022-08-26T02:14:13.426Z,21.74
2022-08-26T02:16:44.459Z,21.79
2022-08-26T02:19:17.201Z,21.85
2022-08-26T02:21:51.209Z,21.86
2022-08-26T02:24:24.159Z,22.07
2022-08-26T02:26:56.246Z,22.03
2022-08-26T02:29:28.418Z,22.31
2022-08-26T02:31:56.886Z,22.40
2022-08-26T02:34:31.371Z,22.49
2022-08-26T02:37:00.786Z,22.13
2022-08-26T02:39:31.656Z,22.01
2022-08-26T02:42:00.430Z,22.09
2022-08-26T02:44:29.217Z,22.23
2022-08-26T02:46:57.600Z,22.17
2022-08-26T02:49:27.801Z,22.26
2022-08-26T02:51:56.439Z,22.13
2022-08-26T02:54:25.315Z,22.08
2022-08-26T02:56:55.639Z,22.01
2022-08-26T02:59:24.363Z,22.14
2022-08-26T03:01:56.007Z,22.61
2022-08-26T03:04:25.761Z,22.92
2022-08-26T03:06:55.589Z,22.22
2022-08-26T03:09:24.572Z,22.60
2022-08-26T03:11:55.576Z,22.40
2022-08-26T03:14:24.657Z,22.47
2022-08-26T03:16:54.566Z,22.07
2022-08-26T03:19:25.149Z,21.94
2022-08-26T03:21:58.047Z,21.71
2022-08-26T03:24:26.983Z,21.87
2022-08-26T03:26:56.860Z,21.95
2022-08-26T03:29:43.156Z,21.95
2022-08-26T03:32:11.740Z,21.82
2022-08-26T03:34:40.141Z,21.95
2022-08-26T03:37:08.557Z,22.19
2022-08-26T03:39:37.151Z,21.98
2022-08-26T03:42:07.274Z,21.83
2022-08-26T03:44:35.974Z,21.91
2022-08-26T03:47:09.110Z,21.92
2022-08-26T03:49:37.483Z,22.24
2022-08-26T03:52:06.977Z,22.30
2022-08-26T03:54:35.853Z,22.56
2022-08-26T03:57:04.340Z,22.64
2022-08-26T03:59:34.993Z,22.91
2022-08-26T04:02:03.457Z,22.65
2022-08-26T04:04:38.097Z,22.80
2022-08-26T04:07:06.573Z,22.85
2022-08-26T04:09:36.486Z,22.43
2022-08-26T04:12:05.740Z,22.22
2022-08-26T04:14:37.759Z,22.58
2022-08-26T04:17:07.661Z,22.71
2022-08-26T04:19:36.064Z,22.95
2022-08-26T04:22:04.420Z,23.09
2022-08-26T04:24:32.991Z,22.97
2022-08-26T04:27:02.694Z,22.69
2022-08-26T04:29:32.162Z,22.69
2022-08-26T04:32:03.139Z,22.62
2022-08-26T04:34:33.025Z,22.59
2022-08-26T04:37:02.679Z,22.38
2022-08-26T04:39:31.081Z,22.31
2022-08-26T04:42:01.766Z,22.21
2022-08-26T04:44:31.959Z,21.91
2022-08-26T04:47:01.260Z,22.54
2022-08-26T04:49:35.327Z,22.67
2022-08-26T04:52:05.284Z,22.92
2022-08-26T04:54:33.700Z,23.29
2022-08-26T04:57:02.603Z,23.07
2022-08-26T04:59:31.045Z,23.00
2022-08-26T05:02:01.145Z,22.96
2022-08-26T05:04:30.381Z,23.33
2022-08-26T05:07:02.301Z,23.42
2022-08-26T05:09:31.600Z,23.05
2022-08-26T05:12:00.067Z,23.29
2022-08-26T05:14:28.427Z,23.04
2022-08-26T05:16:57.052Z,22.94
2022-08-26T05:19:27.845Z,23.19
2022-08-26T05:21:56.543Z,23.15
2022-08-26T05:24:26.425Z,23.12
2022-08-26T05:26:56.535Z,23.04
2022-08-26T05:29:25.256Z,23.06
2022-08-26T05:31:55.991Z,23.39
2022-08-26T05:34:25.836Z,23.54
2022-08-26T05:36:58.853Z,23.86
2022-08-26T05:39:28.606Z,23.90
2022-08-26T05:41:57.113Z,24.10
2022-08-26T05:44:25.584Z,24.24
2022-08-26T05:46:54.147Z,24.12
2022-08-26T05:49:22.596Z,24.33
2022-08-26T05:51:54.909Z,24.41
2022-08-26T05:54:23.278Z,24.69
2022-08-26T05:56:53.648Z,24.54
2022-08-26T05:59:24.625Z,24.12
2022-08-26T06:01:54.835Z,24.07
2022-08-26T06:04:27.565Z,24.07
2022-08-26T06:06:58.670Z,23.77
2022-08-26T06:09:27.931Z,23.61
2022-08-26T06:11:58.981Z,23.76
2022-08-26T06:14:27.407Z,23.93
2022-08-26T06:16:55.901Z,24.58
2022-08-26T06:19:24.389Z,24.34
2022-08-26T06:21:55.004Z,24.49
2022-08-26T06:24:41.136Z,24.80
2022-08-26T06:27:15.176Z,25.02
2022-08-26T06:29:43.856Z,25.41
2022-08-26T06:32:12.826Z,25.77
2022-08-26T06:34:43.531Z,25.90
2022-08-26T06:37:11.943Z,25.83
2022-08-26T06:39:41.345Z,26.11
2022-08-26T06:42:11.912Z,26.22
2022-08-26T06:44:41.589Z,26.03
2022-08-26T06:47:13.315Z,26.38
2022-08-26T06:49:41.823Z,26.74
2022-08-26T06:52:12.712Z,26.82
2022-08-26T06:54:44.278Z,26.89
2022-08-26T06:57:14.393Z,26.99
2022-08-26T06:59:45.233Z,26.84
2022-08-26T07:02:13.886Z,26.73
2022-08-26T07:04:42.603Z,26.84
2022-08-26T07:07:14.406Z,26.76
2022-08-26T07:09:42.826Z,26.73
2022-08-26T07:12:11.173Z,26.78
2022-08-26T07:14:41.037Z,26.62
2022-08-26T07:17:15.980Z,26.87
2022-08-26T07:19:44.873Z,26.36
2022-08-26T07:22:14.254Z,25.78
2022-08-26T07:24:42.748Z,25.55
2022-08-26T07:27:15.321Z,25.42
2022-08-26T07:29:45.481Z,25.46
2022-08-26T07:32:16.164Z,25.80
2022-08-26T07:34:44.868Z,26.29
2022-08-26T07:37:13.463Z,26.27
2022-08-26T07:39:43.140Z,25.99
2022-08-26T07:42:14.413Z,26.18
2022-08-26T07:44:45.026Z,26.51
2022-08-26T07:47:25.508Z,26.56
2022-08-26T07:49:56.362Z,26.40
2022-08-26T07:52:27.066Z,26.52
2022-08-26T07:54:56.757Z,26.52
2022-08-26T07:57:25.365Z,26.19
2022-08-26T07:59:56.007Z,26.60
2022-08-26T08:02:26.553Z,26.68
2022-08-26T08:04:55.281Z,27.00
2022-08-26T08:07:38.526Z,26.93
2022-08-26T08:10:14.733Z,26.70
2022-08-26T08:12:43.975Z,26.40
2022-08-26T08:15:14.727Z,26.36
2022-08-26T08:17:44.215Z,26.28
2022-08-26T08:20:14.214Z,26.14
2022-08-26T08:22:43.113Z,26.16
2022-08-26T08:25:12.634Z,26.23
2022-08-26T08:27:43.325Z,26.22
2022-08-26T08:30:14.047Z,26.59
2022-08-26T08:32:43.765Z,26.96
2022-08-26T08:35:14.196Z,27.20
2022-08-26T08:37:43.815Z,27.07
2022-08-26T08:40:18.581Z,27.02
2022-08-26T08:45:36.301Z,27.12
2022-08-26T08:48:08.234Z,27.43
2022-08-26T08:50:44.883Z,27.38
2022-08-26T08:53:17.699Z,27.10
2022-08-26T08:56:02.252Z,26.77
2022-08-26T08:58:43.815Z,27.16
2022-08-26T09:01:24.312Z,27.40
2022-08-26T09:04:05.156Z,27.36
2022-08-26T09:06:33.513Z,27.46
2022-08-26T09:09:04.176Z,27.14
2022-08-26T09:11:32.695Z,27.20
2022-08-26T09:14:01.297Z,27.42
2022-08-26T09:16:38.859Z,27.37
2022-08-26T09:19:15.552Z,27.08
2022-08-26T09:21:47.805Z,27.79
2022-08-26T09:24:22.314Z,27.98
2022-08-26T09:26:59.211Z,27.85
2022-08-26T09:29:30.278Z,27.79
2022-08-26T09:35:00.107Z,27.51
2022-08-26T09:40:23.056Z,28.05
2022-08-26T09:43:08.533Z,28.33
2022-08-26T09:45:40.555Z,28.83
2022-08-26T09:48:31.559Z,28.95
2022-08-26T09:51:03.784Z,29.29
2022-08-26T09:53:36.765Z,30.02
2022-08-26T09:56:25.467Z,29.88
2022-08-26T09:58:57.580Z,29.92
2022-08-26T10:01:33.754Z,30.04
2022-08-26T10:04:09.934Z,30.44
2022-08-26T10:06:44.288Z,31.16
2022-08-26T10:09:17.378Z,31.69
2022-08-26T10:11:51.967Z,31.61
2022-08-26T10:14:25.698Z,32.00
2022-08-26T10:16:59.707Z,32.01
2022-08-26T10:19:48.285Z,32.20
2022-08-26T10:22:29.153Z,31.66
2022-08-26T10:25:00.586Z,31.92
2022-08-26T10:27:51.095Z,31.72
2022-08-26T10:30:25.288Z,31.69
2022-08-26T10:32:59.202Z,31.80
2022-08-26T10:35:28.947Z,31.87
2022-08-26T10:38:04.449Z,31.46
2022-08-26T10:40:46.406Z,31.16
2022-08-26T10:43:22.687Z,31.32
2022-08-26T10:45:56.328Z,31.05
2022-08-26T10:48:35.833Z,31.31
2022-08-26T10:51:05.738Z,30.89
2022-08-26T10:53:51.618Z,30.91
2022-08-26T10:56:31.100Z,30.73
2022-08-26T10:59:12.486Z,30.33
2022-08-26T11:01:50.996Z,30.34
2022-08-26T11:04:48.428Z,30.40
2022-08-26T11:07:35.547Z,30.54
2022-08-26T11:10:08.362Z,30.37
2022-08-26T11:12:56.297Z,29.37
2022-08-26T11:16:08.384Z,29.37
2022-08-26T11:18:48.829Z,28.92
2022-08-26T11:22:06.079Z,29.11
2022-08-26T11:25:11.535Z,28.17
2022-08-26T11:28:05.655Z,27.97
2022-08-26T11:30:56.931Z,28.15
2022-08-26T11:34:00.128Z,28.48
2022-08-26T11:36:59.186Z,27.51
2022-08-26T11:39:31.882Z,26.97
2022-08-26T11:42:21.634Z,26.90
2022-08-26T11:44:51.783Z,27.17
2022-08-26T11:47:29.568Z,27.66
2022-08-26T11:50:14.448Z,28.16
2022-08-26T11:52:51.482Z,28.26
2022-08-26T11:55:20.310Z,28.47
2022-08-26T11:57:55.877Z,28.98
2022-08-26T12:00:33.453Z,29.21
2022-08-26T12:03:07.555Z,29.59
2022-08-26T12:05:40.091Z,29.11
2022-08-26T12:08:11.204Z,29.14
2022-08-26T12:10:40.588Z,29.48
2022-08-26T12:13:10.200Z,29.82
2022-08-26T12:15:40.338Z,30.38
2022-08-26T12:18:29.195Z,30.11
2022-08-26T12:21:00.855Z,29.51
2022-08-26T12:23:40.693Z,29.80
2022-08-26T12:26:13.063Z,29.35
2022-08-26T12:28:47.175Z,28.88
2022-08-26T12:31:24.664Z,28.69
2022-08-26T12:33:54.232Z,29.07
2022-08-26T12:36:27.605Z,28.59
2022-08-26T12:38:58.578Z,28.63
2022-08-26T12:41:51.227Z,28.09
2022-08-26T12:44:42.704Z,28.02
2022-08-26T12:47:35.224Z,27.21
2022-08-26T12:50:19.372Z,27.20
2022-08-26T12:52:58.348Z,27.32
2022-08-26T12:55:36.678Z,27.65
2022-08-26T12:58:14.884Z,27.45
2022-08-26T13:00:45.195Z,26.91
2022-08-26T13:03:44.666Z,26.53
2022-08-26T13:06:30.157Z,26.30
2022-08-26T13:09:00.966Z,25.75
2022-08-26T13:11:32.192Z,25.75
2022-08-26T13:14:03.181Z,25.91
2022-08-26T13:16:36.500Z,26.49
2022-08-26T13:19:10.474Z,26.13
2022-08-26T13:21:44.931Z,25.83
2022-08-26T13:27:03.232Z,26.24
2022-08-26T13:29:31.719Z,26.41
2022-08-26T13:32:00.751Z,26.51
2022-08-26T13:34:31.664Z,26.58
2022-08-26T13:37:00.905Z,26.76
2022-08-26T13:39:29.356Z,26.71
2022-08-26T13:41:57.803Z,26.84
2022-08-26T13:44:26.299Z,27.12
2022-08-26T13:46:54.798Z,27.17
2022-08-26T13:49:23.402Z,26.83
2022-08-26T13:51:53.229Z,26.75
2022-08-26T13:54:22.084Z,26.82
2022-08-26T13:56:50.455Z,26.98
2022-08-26T13:59:19.562Z,27.36
2022-08-26T14:01:48.155Z,27.26
2022-08-26T14:04:16.800Z,27.07
2022-08-26T14:06:53.277Z,27.22
2022-08-26T14:09:21.713Z,27.47
2022-08-26T14:11:53.752Z,27.39
2022-08-26T14:14:23.324Z,27.84
2022-08-26T14:16:59.326Z,27.77
2022-08-26T14:19:29.696Z,27.98
2022-08-26T14:22:00.823Z,28.05
2022-08-26T14:24:29.788Z,28.23
2022-08-26T14:26:58.689Z,28.81
2022-08-26T14:29:27.134Z,29.27
2022-08-26T14:31:57.920Z,29.44
2022-08-26T14:34:26.798Z,29.63
2022-08-26T14:36:55.246Z,30.05
2022-08-26T14:39:25.253Z,29.95
2022-08-26T14:41:57.267Z,30.22
2022-08-26T14:44:29.241Z,30.55
2022-08-26T14:46:57.917Z,30.85
2022-08-26T14:49:27.426Z,31.13
2022-08-26T14:51:56.594Z,30.68
2022-08-26T14:54:25.426Z,30.10
2022-08-26T14:56:56.815Z,29.54
2022-08-26T14:59:27.932Z,29.69
2022-08-26T15:01:57.012Z,30.31
2022-08-26T15:04:26.439Z,29.98
2022-08-26T15:06:56.829Z,30.49
2022-08-26T15:09:27.236Z,30.48
2022-08-26T15:11:56.264Z,30.27
2022-08-26T15:14:26.026Z,30.06
2022-08-26T15:16:58.549Z,30.04
2022-08-26T15:19:28.145Z,30.37
2022-08-26T15:21:56.806Z,29.70
2022-08-26T15:24:28.972Z,28.79
2022-08-26T15:26:57.399Z,28.82
2022-08-26T15:29:25.769Z,28.82
2022-08-26T15:31:57.396Z,28.50
2022-08-26T15:34:27.032Z,28.45
2022-08-26T15:36:55.733Z,28.26
2022-08-26T15:39:24.191Z,28.67
2022-08-26T15:41:56.187Z,28.61
2022-08-26T15:44:24.830Z,28.32
2022-08-26T15:46:58.293Z,28.00
2022-08-26T15:49:27.801Z,27.47
2022-08-26T15:51:56.268Z,27.94
2022-08-26T15:54:25.204Z,27.75
2022-08-26T15:56:59.461Z,27.56
2022-08-26T15:59:28.798Z,27.50
2022-08-26T16:01:58.276Z,27.16
2022-08-26T16:04:27.641Z,27.13
2022-08-26T16:06:56.664Z,27.42
2022-08-26T16:09:27.338Z,27.30
2022-08-26T16:11:58.582Z,27.16
2022-08-26T16:14:27.589Z,26.61
2022-08-26T16:16:56.627Z,27.23
2022-08-26T16:19:24.976Z,27.41
2022-08-26T16:21:53.450Z,27.18
2022-08-26T16:24:25.906Z,27.48
2022-08-26T16:26:57.653Z,27.51
2022-08-26T16:29:26.146Z,27.38
2022-08-26T16:31:54.952Z,27.06
2022-08-26T16:34:24.152Z,26.48
2022-08-26T16:36:52.578Z,27.26
2022-08-26T16:39:21.025Z,27.32
2022-08-26T16:41:49.371Z,27.34
2022-08-26T16:44:19.309Z,27.37
2022-08-26T16:46:48.102Z,27.22
2022-08-26T16:49:16.792Z,26.81
2022-08-26T16:51:45.361Z,26.99
2022-08-26T16:54:17.784Z,26.59
2022-08-26T16:56:50.963Z,26.23
2022-08-26T16:59:22.218Z,26.19
2022-08-26T17:01:50.801Z,26.08
2022-08-26T17:04:19.953Z,25.97
2022-08-26T17:06:48.508Z,25.75
2022-08-26T17:09:16.894Z,25.48
2022-08-26T17:11:45.618Z,25.77
2022-08-26T17:14:15.298Z,26.01
2022-08-26T17:16:45.182Z,26.14
2022-08-26T17:19:13.936Z,26.00
2022-08-26T17:21:42.456Z,26.10
2022-08-26T17:24:10.836Z,26.12
2022-08-26T17:26:39.340Z,25.74
2022-08-26T17:29:08.129Z,25.84
2022-08-26T17:31:36.549Z,25.88
2022-08-26T17:34:06.711Z,25.60
2022-08-26T17:36:35.245Z,25.55
2022-08-26T17:39:03.757Z,25.69
2022-08-26T17:41:32.178Z,25.71
2022-08-26T17:44:00.560Z,25.08
2022-08-26T17:46:29.349Z,24.82
2022-08-26T17:48:58.284Z,25.16
2022-08-26T17:51:28.102Z,25.38
2022-08-26T17:53:57.181Z,25.18
2022-08-26T17:56:30.935Z,25.05
2022-08-26T17:59:02.474Z,24.93
2022-08-26T18:01:33.074Z,25.13
2022-08-26T18:04:05.403Z,24.70
2022-08-26T18:06:36.836Z,24.39
2022-08-26T18:09:05.345Z,25.00
2022-08-26T18:11:33.846Z,25.03
2022-08-26T18:14:02.733Z,24.95
2022-08-26T18:16:38.412Z,25.08
2022-08-26T18:19:07.566Z,24.52
2022-08-26T18:21:37.765Z,24.19
2022-08-26T18:24:09.123Z,23.64
2022-08-26T18:26:41.290Z,23.66
2022-08-26T18:29:10.843Z,23.68
2022-08-26T18:31:39.229Z,23.89
2022-08-26T18:34:07.770Z,23.72
2022-08-26T18:36:39.900Z,23.69
2022-08-26T18:39:09.321Z,23.63
2022-08-26T18:41:42.537Z,23.78
2022-08-26T18:44:13.657Z,23.53
2022-08-26T18:46:43.104Z,23.64
2022-08-26T18:49:12.928Z,23.80
2022-08-26T18:51:43.620Z,24.25
2022-08-26T18:54:12.695Z,24.47
2022-08-26T18:56:42.500Z,24.59
2022-08-26T18:59:11.854Z,24.67
2022-08-26T19:01:41.525Z,24.75
2022-08-26T19:04:15.368Z,24.67
2022-08-26T19:06:47.641Z,24.61
2022-08-26T19:09:17.806Z,24.56
2022-08-26T19:11:47.411Z,24.31
2022-08-26T19:14:18.572Z,24.25
2022-08-26T19:16:49.124Z,24.36
2022-08-26T19:19:18.299Z,24.35
2022-08-26T19:21:49.375Z,23.87
2022-08-26T19:24:19.801Z,23.65
2022-08-26T19:26:50.421Z,23.16
2022-08-26T19:29:28.341Z,23.85
2022-08-26T19:31:57.000Z,23.39
2022-08-26T19:34:25.729Z,23.61
2022-08-26T19:36:57.258Z,23.24
2022-08-26T19:39:26.211Z,23.57
2022-08-26T19:41:54.963Z,23.74
2022-08-26T19:44:41.959Z,23.67
2022-08-26T19:47:18.605Z,23.19
2022-08-26T19:49:47.098Z,23.06
2022-08-26T19:52:16.949Z,23.29
2022-08-26T19:54:45.743Z,23.61
2022-08-26T19:57:14.415Z,23.41
2022-08-26T19:59:43.609Z,23.55
2022-08-26T20:02:12.582Z,23.55
2022-08-26T20:04:41.905Z,23.46
2022-08-26T20:07:14.245Z,23.59
2022-08-26T20:09:50.920Z,23.60
2022-08-26T20:12:20.025Z,23.69
2022-08-26T20:14:48.625Z,23.66
2022-08-26T20:17:17.383Z,23.62
2022-08-26T20:20:03.037Z,23.59
2022-08-26T20:22:31.794Z,23.49
2022-08-26T20:25:01.849Z,23.41
2022-08-26T20:27:37.974Z,23.34
2022-08-26T20:30:09.328Z,23.47
2022-08-26T20:32:38.220Z,23.40
2022-08-26T20:35:09.130Z,23.47
2022-08-26T20:37:38.992Z,23.43
2022-08-26T20:40:11.121Z,23.58
2022-08-26T20:42:39.761Z,23.65
2022-08-26T20:45:09.828Z,23.83
2022-08-26T20:47:38.259Z,23.87
2022-08-26T20:50:08.227Z,23.78
2022-08-26T20:52:36.743Z,23.79
2022-08-26T20:55:05.837Z,23.59
2022-08-26T20:57:35.601Z,23.75
2022-08-26T21:00:04.713Z,23.69
2022-08-26T21:02:33.155Z,23.29
2022-08-26T21:05:01.761Z,23.13
2022-08-26T21:07:30.378Z,23.40
2022-08-26T21:09:58.706Z,23.36
2022-08-26T21:12:28.162Z,23.21
2022-08-26T21:14:58.152Z,23.51
2022-08-26T21:17:27.101Z,23.25
2022-08-26T21:19:55.695Z,22.90
2022-08-26T21:22:24.205Z,22.91
2022-08-26T21:24:52.680Z,23.11
2022-08-26T21:27:26.143Z,23.14
2022-08-26T21:29:55.210Z,23.00
2022-08-26T21:32:25.023Z,23.15
2022-08-26T21:34:56.181Z,23.19
2022-08-26T21:37:25.205Z,23.07
2022-08-26T21:39:55.005Z,22.65
2022-08-26T21:42:24.727Z,22.87
2022-08-26T21:44:53.688Z,22.68
2022-08-26T21:47:22.292Z,22.81
2022-08-26T21:49:52.623Z,22.77
2022-08-26T21:52:21.420Z,22.85
2022-08-26T21:54:49.934Z,22.70
2022-08-26T21:57:18.690Z,22.68
2022-08-26T21:59:47.239Z,22.52
2022-08-26T22:02:15.826Z,22.53
2022-08-26T22:04:48.607Z,22.56
2022-08-26T22:07:20.101Z,22.38
2022-08-26T22:09:48.786Z,22.42
2022-08-26T22:12:18.541Z,22.46
2022-08-26T22:14:47.179Z,22.36
2022-08-26T22:17:16.054Z,22.33
2022-08-26T22:19:45.940Z,22.20
2022-08-26T22:22:15.697Z,22.24
2022-08-26T22:24:45.412Z,22.19
2022-08-26T22:27:15.234Z,21.66
2022-08-26T22:29:43.867Z,21.94
2022-08-26T22:32:12.336Z,21.91
2022-08-26T22:34:41.991Z,21.88
2022-08-26T22:37:10.355Z,21.96
2022-08-26T22:39:39.126Z,21.93
2022-08-26T22:42:09.279Z,21.63
2022-08-26T22:44:37.797Z,21.87
2022-08-26T22:47:06.572Z,21.93
2022-08-26T22:49:35.033Z,21.59
2022-08-26T22:52:03.874Z,21.40
2022-08-26T22:54:32.484Z,21.71
2022-08-26T22:57:00.922Z,21.46
2022-08-26T22:59:30.785Z,21.65
2022-08-26T23:01:59.141Z,21.68
2022-08-26T23:04:27.592Z,21.82
2022-08-26T23:06:56.013Z,21.93
2022-08-26T23:09:24.384Z,21.84
2022-08-26T23:11:56.047Z,21.67
2022-08-26T23:14:25.650Z,21.57
2022-08-26T23:16:55.574Z,21.68
2022-08-26T23:19:24.445Z,21.81
2022-08-26T23:21:53.130Z,21.84
2022-08-26T23:24:22.209Z,21.84
2022-08-26T23:26:50.631Z,21.94
2022-08-26T23:29:19.088Z,22.14
2022-08-26T23:31:47.537Z,22.18
2022-08-26T23:34:49.473Z,22.05
2022-08-26T23:37:19.690Z,21.84
2022-08-26T23:39:49.751Z,21.92
2022-08-26T23:42:18.199Z,21.85
2022-08-26T23:44:46.764Z,21.77
2022-08-26T23:47:15.672Z,21.71
2022-08-26T23:49:45.460Z,21.65
2022-08-26T23:52:31.157Z,21.69
2022-08-26T23:54:59.513Z,21.59
2022-08-26T23:57:27.944Z,21.60
2022-08-26T23:59:56.273Z,21.63
